Time;durP1;ratioP1;P1;durP2;ratioP2;P2;SDS_P1;SDS_P2;PMS_P1;PMS_P2;Temp;Humidity;BMP_temperature;BMP_pressure;BME280_temperature;BME280_humidity;BME280_pressure;Samples;Min_cycle;Max_cycle;Signal;HPM_P1;HPM_P2
2022/10/02 00:02:25;;;;;;;;;;;14.30;99.90;;;;;;5037149;28;20015;-81
2022/10/02 00:04:57;;;;;;;;;;;14.30;99.90;;;;;;5036261;28;19909;-81
2022/10/02 00:07:27;;;;;;;;;;;14.40;99.90;;;;;;5034420;28;20003;-81
2022/10/02 00:09:55;;;;;;;;;;;14.50;99.90;;;;;;5036685;28;20340;-81
2022/10/02 00:12:23;;;;;;;;;;;14.40;99.90;;;;;;5037114;28;19913;-81
2022/10/02 00:14:51;;;;;;;;;;;14.50;99.90;;;;;;5035304;28;20380;-80
2022/10/02 00:17:19;;;;;;;;;;;14.50;99.90;;;;;;5034660;28;19959;-81
2022/10/02 00:19:44;;;;;;;;;;;14.50;99.90;;;;;;5035998;28;19909;-81
2022/10/02 00:22:33;;;;;;;;;;;14.50;99.90;;;;;;5035984;28;19975;-81
2022/10/02 00:25:08;;;;;;;;;;;14.50;99.90;;;;;;5037139;28;19909;-81
2022/10/02 00:27:37;;;;;;;;;;;14.60;99.90;;;;;;5035922;28;19909;-81
2022/10/02 00:30:03;;;;;;;;;;;14.60;99.90;;;;;;5043950;28;20003;-81
2022/10/02 00:33:07;;;;;;;;;;;14.60;99.90;;;;;;5045606;28;19913;-81
2022/10/02 00:35:38;;;;;;;;;;;14.70;99.90;;;;;;5005703;28;20368;-81
2022/10/02 00:38:13;;;;;;;;;;;14.80;99.90;;;;;;5022221;28;19920;-81
2022/10/02 00:41:02;;;;;;;;;;;14.90;99.90;;;;;;5034110;28;19909;-81
2022/10/02 00:43:34;;;;;;;;;;;14.90;99.90;;;;;;5043564;28;19914;-81
2022/10/02 00:46:02;;;;;;;;;;;14.90;99.90;;;;;;5042080;28;20372;-81
2022/10/02 00:48:45;;;;;;;;;;;14.90;99.90;;;;;;5042560;28;19909;-81
2022/10/02 00:51:19;;;;;;;;;;;15.00;99.90;;;;;;5043211;28;19972;-81
2022/10/02 00:53:48;;;;;;;;;;;15.00;99.90;;;;;;5042159;28;19913;-81
2022/10/02 00:56:13;;;;;;;;;;;15.10;99.90;;;;;;5043091;28;19913;-81
2022/10/02 00:58:44;;;;;;;;;;;15.10;99.90;;;;;;5043557;28;19963;-81
2022/10/02 01:01:32;;;;;;;;;;;15.20;99.90;;;;;;5040249;28;19962;-82
2022/10/02 01:03:59;;;;;;;;;;;15.30;99.90;;;;;;5038413;28;19928;-81
2022/10/02 01:06:26;;;;;;;;;;;15.30;99.90;;;;;;5036176;28;19909;-81
2022/10/02 01:08:52;;;;;;;;;;;15.30;99.90;;;;;;5037833;28;20384;-82
2022/10/02 01:11:19;;;;;;;;;;;15.30;99.90;;;;;;5037966;28;19956;-81
2022/10/02 01:13:45;;;;;;;;;;;15.30;99.90;;;;;;5036859;28;19920;-80
2022/10/02 01:16:11;;;;;;;;;;;15.30;99.90;;;;;;5037429;28;19913;-81
2022/10/02 01:18:37;;;;;;;;;;;15.30;99.90;;;;;;5037809;28;19916;-81
2022/10/02 01:21:15;;;;;;;;;;;15.30;99.90;;;;;;5036803;28;20347;-80
2022/10/02 01:23:41;;;;;;;;;;;15.30;99.90;;;;;;5037195;28;19909;-81
2022/10/02 01:26:06;;;;;;;;;;;15.40;99.90;;;;;;5036466;28;20270;-81
2022/10/02 01:28:32;;;;;;;;;;;15.40;99.90;;;;;;5034675;28;20369;-81
2022/10/02 01:31:06;;;;;;;;;;;15.40;99.90;;;;;;5035676;28;19916;-81
2022/10/02 01:33:32;;;;;;;;;;;15.30;99.90;;;;;;5036709;28;19924;-81
2022/10/02 01:35:57;;;;;;;;;;;15.20;99.90;;;;;;5035796;28;19909;-81
2022/10/02 01:38:23;;;;;;;;;;;15.20;99.90;;;;;;5036238;28;19916;-80
2022/10/02 01:40:49;;;;;;;;;;;15.20;99.90;;;;;;5060267;22;19928;-87
2022/10/02 01:43:14;;;;;;;;;;;15.20;99.90;;;;;;5035180;28;19931;-87
2022/10/02 01:45:55;;;;;;;;;;;15.20;99.90;;;;;;5051812;28;19919;-88
2022/10/02 01:48:21;;;;;;;;;;;15.20;99.90;;;;;;5053237;28;19955;-88
2022/10/02 01:50:49;;;;;;;;;;;15.20;99.90;;;;;;5051550;28;19909;-88
2022/10/02 01:53:15;;;;;;;;;;;15.30;99.90;;;;;;5051836;28;19939;-87
2022/10/02 01:55:43;;;;;;;;;;;15.20;99.90;;;;;;5051581;28;19909;-88
2022/10/02 01:58:23;;;;;;;;;;;15.30;99.90;;;;;;5051401;28;19924;-88
2022/10/02 02:00:52;;;;;;;;;;;15.20;99.90;;;;;;5051609;28;19913;-88
2022/10/02 02:03:21;;;;;;;;;;;15.20;99.90;;;;;;5052042;28;19948;-87
2022/10/02 02:05:51;;;;;;;;;;;15.20;99.90;;;;;;5035360;28;20470;-87
2022/10/02 02:08:27;;;;;;;;;;;15.30;99.90;;;;;;5053369;28;20422;-87
2022/10/02 02:11:01;;;;;;;;;;;15.30;99.90;;;;;;5035103;28;19947;-89
2022/10/02 02:13:30;;;;;;;;;;;15.40;99.90;;;;;;5051738;28;20003;-88
2022/10/02 02:16:00;;;;;;;;;;;15.50;99.90;;;;;;5035297;28;19996;-87
2022/10/02 02:18:32;;;;;;;;;;;15.50;99.90;;;;;;5035157;28;20352;-87
2022/10/02 02:21:04;;;;;;;;;;;15.50;99.90;;;;;;5051737;28;19913;-88
2022/10/02 02:23:32;;;;;;;;;;;15.60;99.90;;;;;;5035093;28;20280;-87
2022/10/02 02:26:01;;;;;;;;;;;15.50;99.90;;;;;;5052840;28;20299;-87
2022/10/02 02:28:28;;;;;;;;;;;15.50;99.90;;;;;;5035146;28;19916;-87
2022/10/02 02:30:54;;;;;;;;;;;15.50;99.90;;;;;;5035085;28;19958;-88
2022/10/02 02:33:25;;;;;;;;;;;15.40;99.90;;;;;;5034998;28;20463;-87
2022/10/02 02:35:52;;;;;;;;;;;15.30;99.90;;;;;;5035089;28;20297;-88
2022/10/02 02:38:24;;;;;;;;;;;15.30;99.90;;;;;;5035075;28;19909;-87
2022/10/02 02:40:50;;;;;;;;;;;15.30;99.90;;;;;;5035920;28;19931;-88
2022/10/02 02:43:20;;;;;;;;;;;15.30;99.90;;;;;;5038987;28;19916;-88
2022/10/02 02:45:52;;;;;;;;;;;15.30;99.90;;;;;;5038968;28;19924;-88
2022/10/02 02:48:26;;;;;;;;;;;15.30;99.90;;;;;;5038813;28;20264;-88
2022/10/02 02:50:55;;;;;;;;;;;15.30;99.90;;;;;;5038753;28;19912;-87
2022/10/02 02:53:27;;;;;;;;;;;15.30;99.90;;;;;;5056516;28;20007;-88
2022/10/02 02:55:53;;;;;;;;;;;15.30;99.90;;;;;;5038596;28;19909;-87
2022/10/02 02:58:25;;;;;;;;;;;15.40;99.90;;;;;;5055168;28;19987;-88
2022/10/02 03:00:50;;;;;;;;;;;15.40;99.90;;;;;;5038744;28;20358;-88
2022/10/02 03:03:15;;;;;;;;;;;15.30;99.90;;;;;;5056417;28;19963;-88
2022/10/02 03:05:44;;;;;;;;;;;15.50;99.90;;;;;;5038743;28;20011;-87
2022/10/02 03:08:17;;;;;;;;;;;15.50;99.90;;;;;;5038532;28;19913;-88
2022/10/02 03:10:58;;;;;;;;;;;15.50;99.90;;;;;;5038469;28;20292;-88
2022/10/02 03:13:32;;;;;;;;;;;15.60;99.90;;;;;;5054930;28;19948;-87
2022/10/02 03:16:10;;;;;;;;;;;15.60;99.90;;;;;;5038397;28;19916;-87
2022/10/02 03:18:51;;;;;;;;;;;15.60;99.90;;;;;;5054882;28;20439;-87
2022/10/02 03:21:25;;;;;;;;;;;15.50;99.90;;;;;;5054768;28;19909;-88
2022/10/02 03:23:51;;;;;;;;;;;15.50;99.90;;;;;;5056183;28;19945;-87
2022/10/02 03:26:32;;;;;;;;;;;15.40;99.90;;;;;;5055990;28;20414;-88
2022/10/02 03:29:00;;;;;;;;;;;15.50;99.90;;;;;;5038210;28;19909;-87
2022/10/02 03:31:27;;;;;;;;;;;15.40;99.90;;;;;;5037859;28;19909;-88
2022/10/02 03:33:52;;;;;;;;;;;15.50;99.90;;;;;;5037957;28;19935;-88
2022/10/02 03:36:19;;;;;;;;;;;15.60;99.90;;;;;;5038236;28;19909;-88
2022/10/02 03:38:46;;;;;;;;;;;15.60;99.90;;;;;;5038001;28;19909;-88
2022/10/02 03:41:11;;;;;;;;;;;15.70;99.90;;;;;;5055425;28;19990;-88
2022/10/02 03:43:37;;;;;;;;;;;15.80;99.90;;;;;;5057951;28;19979;-87
2022/10/02 03:46:02;;;;;;;;;;;15.80;99.90;;;;;;5057729;28;19938;-88
2022/10/02 03:48:28;;;;;;;;;;;15.90;99.90;;;;;;5057708;28;20347;-88
2022/10/02 03:50:53;;;;;;;;;;;15.80;99.90;;;;;;5057780;28;19958;-87
2022/10/02 03:53:24;;;;;;;;;;;15.80;99.90;;;;;;5056610;28;20007;-87
2022/10/02 03:55:56;;;;;;;;;;;15.80;99.90;;;;;;5057508;28;19913;-87
2022/10/02 03:58:22;;;;;;;;;;;15.70;99.90;;;;;;5057539;28;19908;-88
2022/10/02 04:00:54;;;;;;;;;;;15.60;99.90;;;;;;5057323;28;19919;-88
2022/10/02 04:03:23;;;;;;;;;;;15.60;99.90;;;;;;5057761;28;19912;-88
2022/10/02 04:05:51;;;;;;;;;;;15.70;99.90;;;;;;5044066;28;19971;-87
2022/10/02 04:08:18;;;;;;;;;;;15.70;99.90;;;;;;5034406;28;20357;-87
2022/10/02 04:10:47;;;;;;;;;;;15.70;99.90;;;;;;5034027;28;20373;-87
2022/10/02 04:13:15;;;;;;;;;;;15.70;99.90;;;;;;5033785;28;20300;-88
2022/10/02 04:15:56;;;;;;;;;;;15.60;99.90;;;;;;5034066;28;20007;-88
2022/10/02 04:18:28;;;;;;;;;;;15.50;99.90;;;;;;5033880;28;19909;-88
2022/10/02 04:21:08;;;;;;;;;;;15.60;99.90;;;;;;5035023;28;19909;-87
2022/10/02 04:23:38;;;;;;;;;;;15.50;99.90;;;;;;5033867;28;20287;-87
2022/10/02 04:26:09;;;;;;;;;;;15.40;99.90;;;;;;5033909;28;19909;-87
2022/10/02 04:28:39;;;;;;;;;;;15.20;99.90;;;;;;5033800;28;19909;-88
2022/10/02 04:31:08;;;;;;;;;;;15.30;99.90;;;;;;5034802;28;19909;-87
2022/10/02 04:33:33;;;;;;;;;;;15.30;99.90;;;;;;5033541;28;19914;-87
2022/10/02 04:36:11;;;;;;;;;;;15.20;99.90;;;;;;5034934;28;19920;-87
2022/10/02 04:38:55;;;;;;;;;;;15.20;99.90;;;;;;5033447;28;20401;-87
2022/10/02 04:41:39;;;;;;;;;;;15.20;99.90;;;;;;5033139;28;19917;-88
2022/10/02 04:44:05;;;;;;;;;;;15.20;99.90;;;;;;5033582;28;19909;-87
2022/10/02 04:46:33;;;;;;;;;;;15.20;99.90;;;;;;5033447;28;20047;-87
2022/10/02 04:49:08;;;;;;;;;;;15.10;99.90;;;;;;5033443;28;19920;-89
2022/10/02 04:51:43;;;;;;;;;;;15.10;99.90;;;;;;5034637;28;19908;-87
2022/10/02 04:54:11;;;;;;;;;;;15.00;99.90;;;;;;5033291;28;19951;-87
2022/10/02 04:56:49;;;;;;;;;;;15.00;99.90;;;;;;5034437;28;19948;-87
2022/10/02 04:59:53;;;;;;;;;;;15.10;99.90;;;;;;5046193;28;19916;-86
2022/10/02 05:02:31;;;;;;;;;;;15.00;99.90;;;;;;4992651;28;19936;-86
2022/10/02 05:05:08;;;;;;;;;;;15.10;99.90;;;;;;4992508;28;19910;-85
2022/10/02 05:07:44;;;;;;;;;;;15.20;99.90;;;;;;5001442;28;19916;-89
2022/10/02 05:10:12;;;;;;;;;;;15.20;99.90;;;;;;5032737;28;20007;-87
2022/10/02 05:12:38;;;;;;;;;;;15.20;99.90;;;;;;5033943;28;19960;-87
2022/10/02 05:15:09;;;;;;;;;;;15.30;99.90;;;;;;5055356;28;19920;-85
2022/10/02 05:17:38;;;;;;;;;;;15.30;99.90;;;;;;5058878;28;19955;-86
2022/10/02 05:20:36;;;;;;;;;;;15.30;99.90;;;;;;5078124;28;19930;-86
2022/10/02 05:23:46;;;;;;;;;;;15.50;99.90;;;;;;5063843;28;19960;-87
2022/10/02 05:26:27;;;;;;;;;;;15.50;99.90;;;;;;5041975;28;19904;-87
2022/10/02 05:29:11;;;;;;;;;;;15.50;99.90;;;;;;5060965;28;20355;-86
2022/10/02 05:31:53;;;;;;;;;;;15.50;99.90;;;;;;5055657;28;20355;-86
2022/10/02 05:34:32;;;;;;;;;;;15.60;99.90;;;;;;5055662;28;19912;-86
2022/10/02 05:37:16;;;;;;;;;;;15.60;99.90;;;;;;5032339;28;19913;-86
2022/10/02 05:39:51;;;;;;;;;;;15.50;99.90;;;;;;5015735;28;19919;-87
2022/10/02 05:42:25;;;;;;;;;;;15.50;99.90;;;;;;5016015;28;19909;-86
2022/10/02 05:44:55;;;;;;;;;;;15.50;99.90;;;;;;5015833;28;19951;-85
2022/10/02 05:47:26;;;;;;;;;;;15.60;99.90;;;;;;5033349;28;19909;-86
2022/10/02 05:49:54;;;;;;;;;;;15.50;99.90;;;;;;5033355;28;19916;-86
2022/10/02 05:52:23;;;;;;;;;;;15.50;99.90;;;;;;5033312;28;19935;-86
2022/10/02 05:54:49;;;;;;;;;;;15.50;99.90;;;;;;5015666;28;20534;-86
2022/10/02 05:57:19;;;;;;;;;;;15.60;99.90;;;;;;5015475;28;19909;-86
2022/10/02 05:59:55;;;;;;;;;;;15.60;99.90;;;;;;5015580;28;20308;-86
2022/10/02 06:02:42;;;;;;;;;;;15.60;99.90;;;;;;5015554;28;19935;-86
2022/10/02 06:05:13;;;;;;;;;;;15.60;99.90;;;;;;5015819;28;19916;-88
2022/10/02 06:07:42;;;;;;;;;;;15.60;99.90;;;;;;5015617;28;19929;-87
2022/10/02 06:10:16;;;;;;;;;;;15.60;99.90;;;;;;5015506;28;19913;-88
2022/10/02 06:12:57;;;;;;;;;;;15.60;99.90;;;;;;5015593;28;19913;-87
2022/10/02 06:15:22;;;;;;;;;;;15.70;99.90;;;;;;5032670;28;19913;-86
2022/10/02 06:18:09;;;;;;;;;;;15.70;99.90;;;;;;5015319;28;19917;-89
2022/10/02 06:20:34;;;;;;;;;;;15.70;99.90;;;;;;5032933;28;19910;-88
2022/10/02 06:23:06;;;;;;;;;;;15.70;99.90;;;;;;5015344;28;19917;-88
2022/10/02 06:25:40;;;;;;;;;;;15.70;99.90;;;;;;5015592;28;19909;-88
2022/10/02 06:28:25;;;;;;;;;;;15.70;99.90;;;;;;5024188;28;19909;-88
2022/10/02 06:30:55;;;;;;;;;;;15.70;99.90;;;;;;5031546;28;19909;-86
2022/10/02 06:33:28;;;;;;;;;;;15.80;99.90;;;;;;5015289;28;19913;-87
2022/10/02 06:36:13;;;;;;;;;;;15.90;99.90;;;;;;5015320;28;19979;-87
2022/10/02 06:38:51;;;;;;;;;;;16.00;99.90;;;;;;5040671;28;19909;-87
2022/10/02 06:41:24;;;;;;;;;;;16.00;99.90;;;;;;5031430;28;19917;-87
2022/10/02 06:43:55;;;;;;;;;;;16.10;99.90;;;;;;5015299;28;19914;-86
2022/10/02 06:46:34;;;;;;;;;;;16.10;99.90;;;;;;5015091;28;19996;-88
2022/10/02 06:49:20;;;;;;;;;;;16.10;99.90;;;;;;5032748;28;20377;-88
2022/10/02 06:51:53;;;;;;;;;;;16.10;99.90;;;;;;5039352;28;19909;-87
2022/10/02 06:54:31;;;;;;;;;;;16.20;99.90;;;;;;5034135;28;19905;-87
2022/10/02 06:56:57;;;;;;;;;;;16.20;99.90;;;;;;5023129;28;19916;-88
2022/10/02 06:59:33;;;;;;;;;;;16.20;99.90;;;;;;5014833;28;20361;-88
2022/10/02 07:02:17;;;;;;;;;;;16.30;99.90;;;;;;5015199;28;20452;-89
2022/10/02 07:05:09;;;;;;;;;;;16.30;99.90;;;;;;5031225;28;19909;-89
2022/10/02 07:07:56;;;;;;;;;;;16.40;99.90;;;;;;5013546;28;19952;-89
2022/10/02 07:10:34;;;;;;;;;;;16.40;99.90;;;;;;5014629;28;20347;-88
2022/10/02 07:13:16;;;;;;;;;;;16.40;99.90;;;;;;5014680;28;19913;-89
2022/10/02 07:15:42;;;;;;;;;;;16.40;99.90;;;;;;5017104;28;19917;-89
2022/10/02 07:18:07;;;;;;;;;;;16.20;99.90;;;;;;5014593;28;19910;-88
2022/10/02 07:20:50;;;;;;;;;;;16.20;99.90;;;;;;5014688;28;19909;-89
2022/10/02 07:23:16;;;;;;;;;;;16.30;99.90;;;;;;5031504;28;19910;-88
2022/10/02 07:25:54;;;;;;;;;;;16.40;99.90;;;;;;5014634;28;19909;-88
2022/10/02 07:28:42;;;;;;;;;;;16.30;99.90;;;;;;5016388;28;19944;-89
2022/10/02 07:31:10;;;;;;;;;;;16.20;99.90;;;;;;5035726;28;19916;-89
2022/10/02 07:33:45;;;;;;;;;;;16.20;99.90;;;;;;5018283;28;19913;-88
2022/10/02 07:36:14;;;;;;;;;;;16.30;99.90;;;;;;5018229;28;19925;-89
2022/10/02 07:38:49;;;;;;;;;;;16.20;99.90;;;;;;5018011;28;19910;-88
2022/10/02 07:41:24;;;;;;;;;;;16.20;99.90;;;;;;5018599;28;19917;-85
2022/10/02 07:43:52;;;;;;;;;;;16.10;99.90;;;;;;5018807;28;19913;-86
2022/10/02 07:46:37;;;;;;;;;;;16.20;99.90;;;;;;5018305;28;19959;-86
2022/10/02 07:49:05;;;;;;;;;;;16.20;99.90;;;;;;5034868;28;19913;-86
2022/10/02 07:51:49;;;;;;;;;;;16.20;99.90;;;;;;5036201;28;20307;-86
2022/10/02 07:54:14;;;;;;;;;;;16.20;99.90;;;;;;5018419;28;19914;-87
2022/10/02 07:56:40;;;;;;;;;;;16.20;99.90;;;;;;5018148;28;19915;-86
2022/10/02 07:59:10;;;;;;;;;;;16.20;99.90;;;;;;5018267;28;19956;-86
2022/10/02 08:01:38;;;;;;;;;;;16.20;99.90;;;;;;5034767;28;19964;-86
2022/10/02 08:04:13;;;;;;;;;;;16.20;99.90;;;;;;5018141;28;19913;-86
2022/10/02 08:06:38;;;;;;;;;;;16.20;99.90;;;;;;5018088;28;19958;-86
2022/10/02 08:09:22;;;;;;;;;;;16.20;99.90;;;;;;5017930;28;19913;-85
2022/10/02 08:11:47;;;;;;;;;;;16.20;99.90;;;;;;5018027;28;19909;-86
2022/10/02 08:14:17;;;;;;;;;;;16.20;99.90;;;;;;5017618;28;20355;-86
2022/10/02 08:16:47;;;;;;;;;;;16.30;99.90;;;;;;5017390;28;19913;-87
2022/10/02 08:19:24;;;;;;;;;;;16.30;99.90;;;;;;5018036;28;19963;-86
2022/10/02 08:21:55;;;;;;;;;;;16.40;99.90;;;;;;5017754;28;19913;-89
2022/10/02 08:24:31;;;;;;;;;;;16.50;99.90;;;;;;5017089;28;19909;-89
2022/10/02 08:27:00;;;;;;;;;;;16.50;99.90;;;;;;5017118;28;20280;-88
2022/10/02 08:29:28;;;;;;;;;;;16.60;99.90;;;;;;5020877;28;19910;-86
2022/10/02 08:31:55;;;;;;;;;;;16.70;99.90;;;;;;5046845;28;20019;-86
2022/10/02 08:34:21;;;;;;;;;;;16.70;99.90;;;;;;5036160;28;19913;-86
2022/10/02 08:36:53;;;;;;;;;;;16.60;99.90;;;;;;5035243;28;19910;-86
2022/10/02 08:39:18;;;;;;;;;;;16.60;99.90;;;;;;5016932;28;20033;-86
2022/10/02 08:42:03;;;;;;;;;;;16.50;99.90;;;;;;5019277;28;19905;-84
2022/10/02 08:44:31;;;;;;;;;;;16.60;99.90;;;;;;5019092;28;19916;-85
2022/10/02 08:47:03;;;;;;;;;;;16.70;99.90;;;;;;5018169;28;20116;-86
2022/10/02 08:49:28;;;;;;;;;;;16.80;99.90;;;;;;5028165;28;19909;-86
2022/10/02 08:52:09;;;;;;;;;;;16.80;99.90;;;;;;5029832;28;19909;-86
2022/10/02 08:54:50;;;;;;;;;;;16.80;99.90;;;;;;5030757;28;19999;-86
2022/10/02 08:57:29;;;;;;;;;;;16.90;99.90;;;;;;5029060;28;20273;-85
2022/10/02 09:00:13;;;;;;;;;;;17.00;99.90;;;;;;5034262;28;19999;-86
2022/10/02 09:02:59;;;;;;;;;;;17.10;99.90;;;;;;5041205;28;20288;-86
2022/10/02 09:05:44;;;;;;;;;;;17.20;99.90;;;;;;5034015;28;19916;-86
2022/10/02 09:08:28;;;;;;;;;;;17.20;99.90;;;;;;5045573;28;20307;-85
2022/10/02 09:11:12;;;;;;;;;;;17.30;99.90;;;;;;5028600;28;19909;-86
2022/10/02 09:13:41;;;;;;;;;;;17.30;99.90;;;;;;5030097;28;20394;-86
2022/10/02 09:16:06;;;;;;;;;;;17.20;99.90;;;;;;5028372;28;19933;-85
2022/10/02 09:18:47;;;;;;;;;;;17.20;99.90;;;;;;5029148;28;19909;-86
2022/10/02 09:21:16;;;;;;;;;;;17.10;99.90;;;;;;5029040;28;19916;-86
2022/10/02 09:23:44;;;;;;;;;;;17.10;99.90;;;;;;5045793;28;20356;-86
2022/10/02 09:26:25;;;;;;;;;;;17.00;99.90;;;;;;5036488;28;19920;-87
2022/10/02 09:29:10;;;;;;;;;;;17.00;99.90;;;;;;5020885;28;19970;-89
2022/10/02 09:31:54;;;;;;;;;;;16.90;99.90;;;;;;5057986;28;19934;-88
2022/10/02 09:34:46;;;;;;;;;;;16.80;99.90;;;;;;5060373;28;20333;-88
2022/10/02 09:37:58;;;;;;;;;;;16.70;99.90;;;;;;5039829;28;19958;-88
2022/10/02 09:43:35;;;;;;;;;;;16.80;99.90;;;;;;5284270;22;19947;-86
2022/10/02 09:46:18;;;;;;;;;;;16.90;99.90;;;;;;5043749;28;20281;-88
2022/10/02 09:49:03;;;;;;;;;;;17.00;99.90;;;;;;5043578;28;19909;-86
2022/10/02 09:51:29;;;;;;;;;;;17.10;99.90;;;;;;5019137;28;19913;-88
2022/10/02 09:53:54;;;;;;;;;;;17.50;99.90;;;;;;5023855;28;19919;-88
2022/10/02 09:56:20;;;;;;;;;;;17.60;99.90;;;;;;5025728;28;19992;-88
2022/10/02 09:58:55;;;;;;;;;;;17.60;99.90;;;;;;5050637;28;19924;-86
2022/10/02 10:04:47;;;;;;;;;;;17.90;99.90;;;;;;5047808;28;20280;-88
2022/10/02 10:07:28;;;;;;;;;;;18.10;99.90;;;;;;5019538;28;19899;-87
2022/10/02 10:09:57;;;;;;;;;;;18.20;99.90;;;;;;5028762;28;19909;-86
2022/10/02 10:12:32;;;;;;;;;;;18.20;99.90;;;;;;5031348;28;19917;-87
2022/10/02 10:15:18;;;;;;;;;;;18.20;99.90;;;;;;5051366;28;20414;-88
2022/10/02 10:21:25;;;;;;;;;;;;;;;;;;;;;
2022/10/02 10:27:07;;;;;;;;;;;17.90;99.90;;;;;;5020446;28;19909;-87
2022/10/02 10:29:52;;;;;;;;;;;17.90;99.90;;;;;;5085135;28;19942;-87
2022/10/02 10:32:37;;;;;;;;;;;17.80;99.90;;;;;;5084359;28;19904;-87
2022/10/02 10:35:38;;;;;;;;;;;17.90;99.90;;;;;;5068283;28;19915;-87
2022/10/02 10:38:32;;;;;;;;;;;18.10;99.90;;;;;;5027007;28;19932;-87
2022/10/02 10:41:04;;;;;;;;;;;18.40;99.90;;;;;;5070063;28;19908;-87
2022/10/02 10:43:36;;;;;;;;;;;18.60;99.90;;;;;;5060549;28;19924;-86
2022/10/02 10:46:14;;;;;;;;;;;18.80;99.90;;;;;;5061830;28;19908;-87
2022/10/02 10:48:59;;;;;;;;;;;18.80;99.90;;;;;;5060598;28;19954;-86
2022/10/02 10:51:32;;;;;;;;;;;18.60;99.90;;;;;;5060290;28;19909;-85
2022/10/02 10:53:57;;;;;;;;;;;18.50;99.90;;;;;;5071205;28;19989;-88
2022/10/02 10:56:32;;;;;;;;;;;18.80;99.90;;;;;;5053819;28;19909;-85
2022/10/02 10:59:06;;;;;;;;;;;19.00;99.90;;;;;;5066651;28;19909;-85
2022/10/02 11:01:54;;;;;;;;;;;19.20;99.90;;;;;;5052706;28;19995;-85
2022/10/02 11:04:39;;;;;;;;;;;19.10;99.90;;;;;;5031230;28;20368;-84
2022/10/02 11:07:19;;;;;;;;;;;19.00;99.90;;;;;;5057539;28;19928;-85
2022/10/02 11:09:54;;;;;;;;;;;19.10;99.90;;;;;;5075095;28;19908;-84
2022/10/02 11:12:38;;;;;;;;;;;19.10;99.90;;;;;;5058435;28;19917;-83
2022/10/02 11:15:19;;;;;;;;;;;19.10;99.90;;;;;;5058216;28;20382;-85
2022/10/02 11:18:05;;;;;;;;;;;19.10;99.90;;;;;;5058980;28;20003;-85
2022/10/02 11:20:53;;;;;;;;;;;19.10;99.90;;;;;;5058077;28;19919;-86
2022/10/02 11:23:30;;;;;;;;;;;19.10;99.90;;;;;;5074633;28;19912;-85
2022/10/02 11:25:59;;;;;;;;;;;19.00;99.90;;;;;;5057517;28;19912;-86
2022/10/02 11:28:40;;;;;;;;;;;19.20;99.90;;;;;;5058243;28;19908;-85
2022/10/02 11:31:12;;;;;;;;;;;19.30;99.90;;;;;;5075848;28;19909;-87
2022/10/02 11:33:53;;;;;;;;;;;19.20;99.90;;;;;;5057894;28;20033;-86
2022/10/02 11:36:22;;;;;;;;;;;19.40;99.90;;;;;;5074893;28;19948;-85
2022/10/02 11:38:53;;;;;;;;;;;19.40;99.90;;;;;;5056247;28;19908;-86
2022/10/02 11:41:29;;;;;;;;;;;19.60;99.90;;;;;;5037283;28;19913;-85
2022/10/02 11:44:03;;;;;;;;;;;19.50;99.90;;;;;;5037621;28;19963;-87
2022/10/02 11:46:48;;;;;;;;;;;19.60;99.90;;;;;;5054961;28;19917;-85
2022/10/02 11:49:25;;;;;;;;;;;19.50;99.90;;;;;;5037317;28;20284;-87
2022/10/02 11:52:14;;;;;;;;;;;19.50;99.90;;;;;;5055316;28;20439;-87
2022/10/02 11:54:58;;;;;;;;;;;19.50;99.90;;;;;;5036529;28;19952;-84
2022/10/02 11:57:37;;;;;;;;;;;19.40;99.90;;;;;;5053191;28;19915;-83
2022/10/02 12:00:23;;;;;;;;;;;19.60;99.90;;;;;;5037220;28;19923;-84
2022/10/02 12:03:04;;;;;;;;;;;19.70;99.90;;;;;;5034633;28;20039;-85
2022/10/02 12:05:36;;;;;;;;;;;19.70;99.90;;;;;;5016936;28;19963;-86
2022/10/02 12:08:16;;;;;;;;;;;19.70;99.90;;;;;;5016928;28;19933;-85
2022/10/02 12:11:00;;;;;;;;;;;19.80;99.90;;;;;;5019177;28;19909;-85
2022/10/02 12:13:46;;;;;;;;;;;19.90;99.90;;;;;;5032756;28;19913;-85
2022/10/02 12:16:34;;;;;;;;;;;19.80;99.90;;;;;;5030831;28;19915;-83
2022/10/02 12:19:07;;;;;;;;;;;20.00;99.90;;;;;;5054453;28;20376;-83
2022/10/02 12:27:10;;;;;;;;;;;19.90;99.90;;;;;;5053562;28;20016;-84
2022/10/02 12:29:42;;;;;;;;;;;19.70;99.90;;;;;;5036606;28;19963;-85
2022/10/02 12:32:14;;;;;;;;;;;19.50;99.90;;;;;;5036412;28;19908;-85
2022/10/02 12:34:58;;;;;;;;;;;19.50;99.90;;;;;;5036175;28;20388;-82
2022/10/02 12:37:24;;;;;;;;;;;19.60;99.90;;;;;;5035898;28;19944;-84
2022/10/02 12:39:53;;;;;;;;;;;19.80;99.90;;;;;;5036120;28;19932;-85
2022/10/02 12:42:39;;;;;;;;;;;20.10;99.90;;;;;;5037717;28;19920;-81
2022/10/02 12:45:05;;;;;;;;;;;20.10;99.90;;;;;;5035305;28;19962;-84
2022/10/02 12:47:40;;;;;;;;;;;20.20;99.90;;;;;;5055196;28;20360;-84
2022/10/02 12:50:20;;;;;;;;;;;20.20;99.90;;;;;;5050840;28;19996;-83
2022/10/02 12:52:46;;;;;;;;;;;20.50;99.90;;;;;;5049303;28;19920;-85
2022/10/02 12:55:30;;;;;;;;;;;20.70;99.90;;;;;;5016329;28;19909;-87
2022/10/02 12:57:59;;;;;;;;;;;20.70;99.90;;;;;;5015346;28;19910;-87
2022/10/02 13:00:34;;;;;;;;;;;20.70;99.90;;;;;;5015767;28;19964;-86
2022/10/02 13:03:09;;;;;;;;;;;20.70;99.90;;;;;;5015886;28;19995;-87
2022/10/02 13:05:39;;;;;;;;;;;20.90;99.90;;;;;;5015280;28;19913;-86
2022/10/02 13:08:23;;;;;;;;;;;21.00;99.90;;;;;;5016699;28;20336;-86
2022/10/02 13:11:01;;;;;;;;;;;21.10;99.90;;;;;;5023673;28;19913;-84
2022/10/02 13:13:34;;;;;;;;;;;21.20;99.90;;;;;;5032400;28;20379;-85
2022/10/02 13:16:07;;;;;;;;;;;21.20;99.90;;;;;;5033350;28;19909;-83
2022/10/02 13:18:44;;;;;;;;;;;21.50;99.90;;;;;;5016023;28;19932;-85
2022/10/02 13:21:14;;;;;;;;;;;21.60;99.90;;;;;;5015913;28;19913;-86
2022/10/02 13:23:47;;;;;;;;;;;21.70;99.90;;;;;;5016478;28;19920;-87
2022/10/02 13:26:20;;;;;;;;;;;21.60;99.90;;;;;;5014538;28;19956;-85
2022/10/02 13:29:01;;;;;;;;;;;21.60;99.90;;;;;;5050324;28;19912;-84
2022/10/02 13:31:41;;;;;;;;;;;21.40;99.90;;;;;;5036449;28;19958;-81
2022/10/02 13:34:07;;;;;;;;;;;21.10;99.90;;;;;;5044111;28;19960;-82
2022/10/02 13:36:46;;;;;;;;;;;20.90;99.90;;;;;;5029849;28;19920;-82
2022/10/02 13:39:30;;;;;;;;;;;20.60;99.90;;;;;;5034695;28;20311;-83
2022/10/02 13:41:59;;;;;;;;;;;20.50;99.90;;;;;;5038939;22;19925;-81
2022/10/02 13:44:34;;;;;;;;;;;20.30;99.90;;;;;;5024420;28;20327;-83
2022/10/02 13:47:16;;;;;;;;;;;20.20;99.90;;;;;;5033222;28;20486;-82
2022/10/02 13:49:44;;;;;;;;;;;20.20;99.90;;;;;;5033573;28;19935;-83
2022/10/02 13:52:18;;;;;;;;;;;20.10;99.90;;;;;;5028983;28;19909;-82
2022/10/02 13:54:46;;;;;;;;;;;20.10;99.90;;;;;;5032925;28;20130;-82
2022/10/02 13:57:12;;;;;;;;;;;20.00;99.90;;;;;;5033804;28;19909;-83
2022/10/02 13:59:43;;;;;;;;;;;20.00;99.90;;;;;;5034948;28;19963;-83
2022/10/02 14:02:15;;;;;;;;;;;20.20;99.90;;;;;;5033683;28;19913;-83
2022/10/02 14:04:55;;;;;;;;;;;20.50;99.90;;;;;;5033810;28;19916;-82
2022/10/02 14:07:20;;;;;;;;;;;20.60;99.90;;;;;;5032933;28;19960;-82
2022/10/02 14:09:46;;;;;;;;;;;20.80;99.90;;;;;;5032654;28;19909;-82
2022/10/02 14:12:19;;;;;;;;;;;20.90;99.90;;;;;;5033502;28;19909;-81
2022/10/02 14:15:05;;;;;;;;;;;20.70;99.90;;;;;;5033158;28;19952;-80
2022/10/02 14:17:52;;;;;;;;;;;20.50;99.90;;;;;;5032507;28;19910;-80
2022/10/02 14:20:21;;;;;;;;;;;20.20;99.90;;;;;;5032951;28;19909;-80
2022/10/02 14:23:01;;;;;;;;;;;20.00;99.90;;;;;;5032326;28;19955;-80
2022/10/02 14:25:47;;;;;;;;;;;19.90;99.90;;;;;;5033530;28;20347;-80
2022/10/02 14:28:12;;;;;;;;;;;19.90;99.90;;;;;;5032886;28;19979;-80
2022/10/02 14:30:38;;;;;;;;;;;19.70;99.90;;;;;;5031881;28;19913;-81
2022/10/02 14:33:21;;;;;;;;;;;19.60;99.90;;;;;;5033887;28;19940;-81
2022/10/02 14:35:58;;;;;;;;;;;19.50;99.90;;;;;;5033005;28;19916;-81
2022/10/02 14:38:23;;;;;;;;;;;19.40;99.90;;;;;;5035868;28;19945;-81
2022/10/02 14:40:56;;;;;;;;;;;19.30;99.90;;;;;;5037899;28;19917;-81
2022/10/02 14:43:32;;;;;;;;;;;19.20;99.90;;;;;;5037502;28;20440;-81
2022/10/02 14:46:16;;;;;;;;;;;19.10;99.90;;;;;;5036474;28;19920;-81
2022/10/02 14:48:42;;;;;;;;;;;19.00;99.90;;;;;;5037669;28;19909;-81
2022/10/02 14:51:26;;;;;;;;;;;18.80;99.90;;;;;;5037364;28;20319;-81
2022/10/02 14:54:00;;;;;;;;;;;18.70;99.90;;;;;;5037536;28;19959;-81
2022/10/02 14:56:31;;;;;;;;;;;18.70;99.90;;;;;;5036807;28;19910;-81
2022/10/02 14:59:09;;;;;;;;;;;18.60;99.90;;;;;;5038516;28;19917;-81
2022/10/02 15:01:41;;;;;;;;;;;18.60;99.90;;;;;;5038857;28;20003;-81
2022/10/02 15:04:21;;;;;;;;;;;18.70;99.90;;;;;;5037529;28;19956;-81
2022/10/02 15:06:55;;;;;;;;;;;18.70;99.90;;;;;;5036174;28;19917;-81
2022/10/02 15:09:23;;;;;;;;;;;18.70;99.90;;;;;;5037117;28;19963;-81
2022/10/02 15:11:54;;;;;;;;;;;18.60;99.90;;;;;;5037077;28;19917;-81
2022/10/02 15:14:32;;;;;;;;;;;18.40;99.90;;;;;;5036993;28;20328;-81
2022/10/02 15:19:43;;;;;;;;;;;18.20;99.90;;;;;;5036978;28;20443;-80
2022/10/02 15:22:19;;;;;;;;;;;18.10;99.90;;;;;;5036966;28;19909;-80